This is the latest recevied weather packets stored in our database for station/object N0THY. If no packets are shown the sender has not sent any weather packets the latest 10 day(s).
| Time | Temp. | Humidity | Pressure | Rain* | Wind** | Luminosity | Snow |
|---|---|---|---|---|---|---|---|
| 1777691598 | 12.78° C | 28% | 1018.2 hPa | 0 mm | - | - | - |
| 1777690695 | 13.33° C | 26% | 1017.9 hPa | 0 mm | - | - | - |
| 1777689792 | 14.44° C | 25% | 1017.7 hPa | 0 mm | - | - | - |
| 1777688889 | 14.44° C | 24% | 1017.4 hPa | 0 mm | - | - | - |
| 1777687986 | 15° C | 23% | 1017.1 hPa | 0 mm | - | - | - |
| 1777687083 | 15.56° C | 22% | 1016.9 hPa | 0 mm | - | - | - |
| 1777686180 | 16.11° C | 21% | 1016.7 hPa | 0 mm | - | - | - |
| 1777685277 | 17.22° C | 20% | 1016.5 hPa | 0 mm | - | - | - |
| 1777684374 | 17.78° C | 18% | 1016.3 hPa | 0 mm | - | - | - |
| 1777683471 | 18.33° C | 18% | 1016.2 hPa | 0 mm | - | - | - |
| 1777682568 | 18.89° C | 17% | 1016.2 hPa | 0 mm | - | - | - |
| 1777681665 | 19.44° C | 17% | 1016.1 hPa | 0 mm | - | - | - |
| 1777680762 | 20.56° C | 16% | 1016.1 hPa | 0 mm | - | - | - |
| 1777678956 | 20.56° C | 17% | 1016.1 hPa | 0 mm | - | - | - |
| 1777677150 | 17.78° C | 23% | 1016.4 hPa | 0 mm | - | - | - |
| 1777676248 | 17.78° C | 22% | 1016.2 hPa | 0 mm | - | - | - |
| 1777675345 | 20° C | 20% | 1016.1 hPa | 0 mm | - | - | - |
| 1777674442 | 21.11° C | 19% | 1015.9 hPa | 0 mm | - | - | - |
| 1777673539 | 20.56° C | 20% | 1016.1 hPa | 0 mm | - | - | - |
| 1777672636 | 19.44° C | 21% | 1016.3 hPa | 0 mm | - | - | - |
| 1777671733 | 19.44° C | 23% | 1016.6 hPa | 0 mm | - | - | - |
| 1777670830 | 19.44° C | 21% | 1016.8 hPa | 0 mm | - | - | - |
| 1777669927 | 20.56° C | 21% | 1016.9 hPa | 0 mm | - | - | - |
| 1777669024 | 20.56° C | 20% | 1017 hPa | 0 mm | - | - | - |
| 1777668121 | 20° C | 21% | 1017.2 hPa | 0 mm | - | - | - |
* Rain since midnight (hover to see other rain measurements)
** Current wind speed in m/s (hover to see current wind gust speed)